Maassluis, Netherlands
Current Conditions -  °F | °C
As of 6:25 AM on Friday 31 Oct 2014 (Local Time) from EHRD Reporting Station
Clear Clear  
Wind Chill: 54°   Ceiling: Unl
Heat Index: 54°   Visibility: 4mi
Dew Point: 52°   Wind: 7mph
Humidity: 94%   Direction: 180°S
Pressure: 30.12"   Gusts: NA
Location:  51.92°N, 4.25°E
Report Text: EHRD 310525Z AUTO 18006KT 7000 NSC 12/11 Q1020 NOSIG
Loading
Personal Weather Stations






























Interactive Weather Map
Tropical Storm Tracking
New forecast layout! Learn more

10-Day Weather Forecast

Advertisements
Track Severe Weather on mobile